createdAt,value
2019-02-06T00:01:06.490Z,101785.08
2019-02-06T00:03:36.323Z,101782.50
2019-02-06T00:06:06.241Z,101783.52
2019-02-06T00:08:35.852Z,101774.98
2019-02-06T00:11:06.523Z,101779.28
2019-02-06T00:13:36.067Z,101783.58
2019-02-06T00:16:06.141Z,101778.42
2019-02-06T00:18:36.066Z,101779.21
2019-02-06T00:21:05.878Z,101783.51
2019-02-06T00:23:35.439Z,101782.89
2019-02-06T00:26:05.244Z,101777.25
2019-02-06T00:28:35.059Z,101770.64
2019-02-06T00:31:04.794Z,101780.69
2019-02-06T00:33:34.304Z,101773.77
2019-02-06T00:36:03.872Z,101767.65
2019-02-06T00:38:33.481Z,101766.75
2019-02-06T00:41:03.231Z,101763.73
2019-02-06T00:43:32.721Z,101759.73
2019-02-06T00:46:02.758Z,101756.56
2019-02-06T00:48:32.330Z,101762.04
2019-02-06T00:51:02.202Z,101754.12
2019-02-06T00:53:31.705Z,101759.36
2019-02-06T00:56:01.413Z,101760.88
2019-02-06T00:58:30.921Z,101756.60
2019-02-06T01:01:00.454Z,101761.80
2019-02-06T01:03:29.961Z,101765.64
2019-02-06T01:05:59.516Z,101763.41
2019-02-06T01:08:29.133Z,101766.22
2019-02-06T01:10:58.716Z,101769.98
2019-02-06T01:13:28.532Z,101769.14
2019-02-06T01:15:58.325Z,101774.31
2019-02-06T01:18:27.829Z,101773.74
2019-02-06T01:20:57.553Z,101771.39
2019-02-06T01:23:27.118Z,101772.11
2019-02-06T01:25:56.847Z,101771.22
2019-02-06T01:28:26.285Z,101769.64
2019-02-06T01:31:02.660Z,101765.33
2019-02-06T01:33:32.423Z,101769.67
2019-02-06T01:36:02.261Z,101766.19
2019-02-06T01:38:31.867Z,101770.66
2019-02-06T01:41:01.987Z,101764.00
2019-02-06T01:43:31.618Z,101768.15
2019-02-06T01:46:01.211Z,101778.09
2019-02-06T01:48:30.780Z,101776.78
2019-02-06T01:51:00.496Z,101769.02
2019-02-06T01:53:30.002Z,101775.97
2019-02-06T01:55:59.881Z,101767.69
2019-02-06T01:58:29.769Z,101766.48
2019-02-06T02:00:59.398Z,101762.81
2019-02-06T02:03:29.259Z,101770.72
2019-02-06T02:06:02.264Z,101767.75
2019-02-06T02:08:32.376Z,101760.72
2019-02-06T02:11:11.840Z,101752.03
2019-02-06T02:13:41.525Z,101751.99
2019-02-06T02:16:11.027Z,101753.83
2019-02-06T02:18:40.601Z,101749.87
2019-02-06T02:21:10.364Z,101745.05
2019-02-06T02:23:40.556Z,101735.09
2019-02-06T02:26:10.087Z,101740.84
2019-02-06T02:28:39.590Z,101733.02
2019-02-06T02:31:09.511Z,101742.54
2019-02-06T02:33:39.619Z,101738.16
2019-02-06T02:36:15.717Z,101730.34
2019-02-06T02:38:40.325Z,101718.17
2019-02-06T02:41:10.223Z,101720.83
2019-02-06T02:43:40.241Z,101709.44
2019-02-06T02:46:10.094Z,101714.30
2019-02-06T02:48:39.830Z,101699.41
2019-02-06T02:51:09.584Z,101701.11
2019-02-06T02:53:39.075Z,101697.66
2019-02-06T02:56:08.562Z,101696.45
2019-02-06T02:58:38.070Z,101686.84
2019-02-06T03:01:35.283Z,101694.34
2019-02-06T03:04:28.657Z,101690.73
2019-02-06T03:06:58.162Z,101692.13
2019-02-06T03:09:27.717Z,101691.77
2019-02-06T03:11:57.697Z,101681.24
2019-02-06T03:14:27.273Z,101671.64
2019-02-06T03:16:56.921Z,101672.95
2019-02-06T03:19:27.031Z,101667.33
2019-02-06T03:21:56.797Z,101676.95
2019-02-06T03:24:26.335Z,101673.58
2019-02-06T03:26:56.365Z,101670.03
2019-02-06T03:29:25.897Z,101665.67
2019-02-06T03:31:55.688Z,101667.02
2019-02-06T03:34:25.810Z,101663.05
2019-02-06T03:36:55.319Z,101663.96
2019-02-06T03:39:25.317Z,101652.08
2019-02-06T03:41:55.449Z,101652.08
2019-02-06T03:44:25.060Z,101672.92
2019-02-06T03:46:54.684Z,101675.20
2019-02-06T03:49:24.487Z,101675.29
2019-02-06T03:51:54.087Z,101677.60
2019-02-06T03:54:24.060Z,101674.44
2019-02-06T03:56:54.933Z,101673.13
2019-02-06T03:59:24.669Z,101663.47
2019-02-06T04:01:55.392Z,101655.75
2019-02-06T04:04:25.030Z,101656.15
2019-02-06T04:07:01.009Z,101647.56
2019-02-06T04:09:27.012Z,101658.07
2019-02-06T04:11:56.508Z,101650.29
2019-02-06T04:14:26.272Z,101652.05
2019-02-06T04:16:57.368Z,101646.31
2019-02-06T04:19:26.899Z,101641.03
2019-02-06T04:21:56.742Z,101644.13
2019-02-06T04:24:26.803Z,101649.33
2019-02-06T04:26:56.324Z,101647.20
2019-02-06T04:29:25.812Z,101633.26
2019-02-06T04:31:55.355Z,101636.69
2019-02-06T04:34:25.163Z,101633.66
2019-02-06T04:37:06.103Z,101629.39
2019-02-06T04:39:26.547Z,101621.53
2019-02-06T04:41:56.286Z,101625.38
2019-02-06T04:44:26.282Z,101624.98
2019-02-06T04:46:56.104Z,101619.80
2019-02-06T04:49:25.876Z,101613.30
2019-02-06T04:51:55.397Z,101612.75
2019-02-06T04:54:25.710Z,101606.19
2019-02-06T04:56:55.578Z,101611.53
2019-02-06T04:59:25.393Z,101598.12
2019-02-06T05:01:55.811Z,101583.27
2019-02-06T05:04:25.702Z,101581.27
2019-02-06T05:06:55.241Z,101584.75
2019-02-06T05:09:25.317Z,101578.66
2019-02-06T05:11:55.756Z,101565.61
2019-02-06T05:14:25.685Z,101569.01
2019-02-06T05:16:55.829Z,101567.29
2019-02-06T05:19:25.719Z,101561.17
2019-02-06T05:21:55.818Z,101564.30
2019-02-06T05:24:25.583Z,101559.97
2019-02-06T05:26:55.984Z,101556.00
2019-02-06T05:29:26.167Z,101556.03
2019-02-06T05:31:56.408Z,101563.88
2019-02-06T05:34:26.201Z,101561.68
2019-02-06T05:36:55.978Z,101562.96
2019-02-06T05:39:25.807Z,101559.05
2019-02-06T05:41:55.812Z,101553.85
2019-02-06T05:44:26.266Z,101558.59
2019-02-06T05:46:55.924Z,101552.14
2019-02-06T05:49:26.916Z,101553.02
2019-02-06T05:51:57.070Z,101556.45
2019-02-06T05:54:26.600Z,101553.41
2019-02-06T05:56:56.124Z,101550.43
2019-02-06T05:59:26.416Z,101551.28
2019-02-06T06:01:56.835Z,101533.52
2019-02-06T06:04:26.442Z,101541.38
2019-02-06T06:06:56.243Z,101534.42
2019-02-06T06:09:26.778Z,101534.81
2019-02-06T06:11:56.331Z,101533.52
2019-02-06T06:14:26.695Z,101534.42
2019-02-06T06:16:56.412Z,101541.38
2019-02-06T06:19:26.512Z,101537.45
2019-02-06T06:21:56.980Z,101540.47
2019-02-06T06:24:26.748Z,101530.94
2019-02-06T06:26:56.626Z,101532.20
2019-02-06T06:29:26.672Z,101522.72
2019-02-06T06:31:56.756Z,101537.89
2019-02-06T06:34:26.951Z,101528.77
2019-02-06T06:36:57.178Z,101528.80
2019-02-06T06:39:26.789Z,101523.56
2019-02-06T06:41:57.084Z,101519.23
2019-02-06T06:44:27.310Z,101530.95
2019-02-06T06:46:57.430Z,101520.96
2019-02-06T06:49:26.995Z,101519.66
2019-02-06T06:51:57.681Z,101527.86
2019-02-06T06:54:27.992Z,101524.87
2019-02-06T06:56:58.476Z,101526.14
2019-02-06T06:59:28.083Z,101519.67
2019-02-06T07:01:57.968Z,101520.54
2019-02-06T07:04:27.451Z,101523.15
2019-02-06T07:06:57.241Z,101517.05
2019-02-06T07:09:27.568Z,101515.73
2019-02-06T07:11:57.298Z,101510.52
2019-02-06T07:14:27.347Z,101516.62
2019-02-06T07:16:57.689Z,101514.84
2019-02-06T07:19:27.738Z,101514.41
2019-02-06T07:21:57.686Z,101513.02
2019-02-06T07:24:27.748Z,101510.05
2019-02-06T07:26:57.532Z,101496.05
2019-02-06T07:29:27.692Z,101497.30
2019-02-06T07:31:57.887Z,101498.52
2019-02-06T07:34:27.732Z,101491.11
2019-02-06T07:36:57.777Z,101480.58
2019-02-06T07:39:27.862Z,101484.91
2019-02-06T07:41:57.863Z,101500.64
2019-02-06T07:44:27.850Z,101500.64
2019-02-06T07:46:57.880Z,101498.81
2019-02-06T07:49:28.489Z,101484.25
2019-02-06T07:51:58.263Z,101477.28
2019-02-06T07:54:28.313Z,101473.02
2019-02-06T07:56:58.056Z,101463.82
2019-02-06T07:59:28.088Z,101474.23
2019-02-06T08:01:58.610Z,101471.65
2019-02-06T08:04:28.623Z,101473.56
2019-02-06T08:06:58.206Z,101463.81
2019-02-06T08:09:28.745Z,101467.16
2019-02-06T08:11:58.493Z,101465.16
2019-02-06T08:14:28.793Z,101466.84
2019-02-06T08:16:58.489Z,101460.85
2019-02-06T08:22:08.743Z,101457.06
2019-02-06T08:24:38.716Z,101459.48
2019-02-06T08:27:08.297Z,101460.53
2019-02-06T08:29:37.912Z,101452.96
2019-02-06T08:32:07.754Z,101457.64
2019-02-06T08:34:37.321Z,101452.61
2019-02-06T08:37:07.388Z,101456.06
2019-02-06T08:39:36.923Z,101451.34
2019-02-06T08:42:06.591Z,101455.44
2019-02-06T08:44:36.404Z,101452.50
2019-02-06T08:47:05.919Z,101451.18
2019-02-06T08:49:35.425Z,101449.09
2019-02-06T08:52:04.995Z,101444.11
2019-02-06T08:54:34.776Z,101437.42
2019-02-06T08:57:04.582Z,101433.90
2019-02-06T08:59:36.269Z,101435.83
2019-02-06T09:02:05.479Z,101431.57
2019-02-06T09:04:34.994Z,101432.16
2019-02-06T09:07:04.617Z,101427.75
2019-02-06T09:09:34.127Z,101429.19
2019-02-06T09:12:03.871Z,101436.45
2019-02-06T09:14:33.408Z,101434.88
2019-02-06T09:17:03.063Z,101430.66
2019-02-06T09:19:33.011Z,101432.80
2019-02-06T09:22:02.800Z,101437.14
2019-02-06T09:24:32.628Z,101442.30
2019-02-06T09:27:03.458Z,101428.53
2019-02-06T09:29:33.318Z,101432.06
2019-02-06T09:32:03.190Z,101424.52
2019-02-06T09:34:32.799Z,101416.36
2019-02-06T09:37:05.087Z,101415.55
2019-02-06T09:39:33.620Z,101414.61
2019-02-06T09:42:03.199Z,101414.16
2019-02-06T09:44:32.765Z,101419.19
2019-02-06T09:47:02.589Z,101402.35
2019-02-06T09:49:32.329Z,101404.91
2019-02-06T09:52:01.904Z,101402.23
2019-02-06T09:54:31.420Z,101403.67
2019-02-06T09:57:00.965Z,101404.75
2019-02-06T09:59:30.554Z,101398.72
2019-02-06T10:02:00.250Z,101393.16
2019-02-06T10:04:30.411Z,101390.77
2019-02-06T10:07:00.224Z,101391.56
2019-02-06T10:09:30.400Z,101391.56
2019-02-06T10:12:00.504Z,101390.73
2019-02-06T10:14:30.348Z,101394.39
2019-02-06T10:17:00.759Z,101398.91
2019-02-06T10:19:30.344Z,101401.39
2019-02-06T10:22:00.905Z,101401.45
2019-02-06T10:24:31.153Z,101398.41
2019-02-06T10:27:00.668Z,101396.08
2019-02-06T10:29:30.561Z,101392.41
2019-02-06T10:32:00.619Z,101387.51
2019-02-06T10:34:30.840Z,101385.59
2019-02-06T10:37:00.627Z,101386.12
2019-02-06T10:39:34.636Z,101385.01
2019-02-06T10:42:02.258Z,101382.54
2019-02-06T10:44:31.938Z,101375.52
2019-02-06T10:47:01.425Z,101375.69
2019-02-06T10:49:30.923Z,101372.59
2019-02-06T10:52:00.885Z,101368.54
2019-02-06T10:54:31.356Z,101369.05
2019-02-06T10:57:01.292Z,101359.89
2019-02-06T10:59:31.418Z,101357.90
2019-02-06T11:02:01.214Z,101357.83
2019-02-06T11:04:31.075Z,101356.53
2019-02-06T11:07:01.546Z,101351.59
2019-02-06T11:09:32.018Z,101351.66
2019-02-06T11:12:01.727Z,101357.25
2019-02-06T11:14:31.286Z,101353.33
2019-02-06T11:17:01.510Z,101348.06
2019-02-06T11:19:31.310Z,101340.41
2019-02-06T11:22:02.093Z,101339.95
2019-02-06T11:24:31.645Z,101328.99
2019-02-06T11:27:01.638Z,101337.48
2019-02-06T11:29:31.692Z,101332.28
2019-02-06T11:32:01.571Z,101328.00
2019-02-06T11:34:31.598Z,101324.13
2019-02-06T11:37:02.005Z,101323.54
2019-02-06T11:39:32.019Z,101321.20
2019-02-06T11:42:01.920Z,101312.36
2019-02-06T11:44:31.714Z,101318.92
2019-02-06T11:47:02.289Z,101308.27
2019-02-06T11:49:39.893Z,101305.57
2019-02-06T11:52:09.559Z,101298.55
2019-02-06T11:54:39.431Z,101296.59
2019-02-06T11:57:09.240Z,101287.36
2019-02-06T11:59:39.687Z,101288.94
2019-02-06T12:02:09.251Z,101287.08
2019-02-06T12:04:38.788Z,101276.70
2019-02-06T12:07:08.381Z,101283.97
2019-02-06T12:09:38.174Z,101276.02
2019-02-06T12:12:07.926Z,101268.92
2019-02-06T12:14:37.420Z,101279.52
2019-02-06T12:17:07.155Z,101260.93
2019-02-06T12:19:36.972Z,101263.56
2019-02-06T12:22:06.557Z,101254.35
2019-02-06T12:24:36.389Z,101255.92
2019-02-06T12:27:06.531Z,101261.11
2019-02-06T12:29:36.058Z,101261.10
2019-02-06T12:32:05.953Z,101257.16
2019-02-06T12:34:35.441Z,101250.80
2019-02-06T12:37:05.136Z,101251.69
2019-02-06T12:39:35.837Z,101244.69
2019-02-06T12:42:05.513Z,101243.55
2019-02-06T12:44:35.044Z,101243.42
2019-02-06T12:47:05.125Z,101240.95
2019-02-06T12:49:34.871Z,101238.67
2019-02-06T12:52:04.452Z,101239.98
2019-02-06T12:54:34.020Z,101234.56
2019-02-06T12:57:03.531Z,101228.07
2019-02-06T12:59:33.047Z,101224.89
2019-02-06T13:02:03.062Z,101218.00
2019-02-06T13:04:33.065Z,101222.88
2019-02-06T13:07:03.163Z,101220.44
2019-02-06T13:09:33.452Z,101219.05
2019-02-06T13:12:03.218Z,101204.14
2019-02-06T13:14:33.677Z,101210.83
2019-02-06T13:17:03.345Z,101202.83
2019-02-06T13:19:33.540Z,101201.46
2019-02-06T13:22:03.557Z,101195.08
2019-02-06T13:24:33.699Z,101186.22
2019-02-06T13:27:03.877Z,101190.20
2019-02-06T13:29:33.976Z,101184.59
2019-02-06T13:32:03.866Z,101183.78
2019-02-06T13:34:34.123Z,101180.98
2019-02-06T13:37:04.047Z,101175.92
2019-02-06T13:39:34.328Z,101171.12
2019-02-06T13:42:05.598Z,101174.88
2019-02-06T13:44:35.166Z,101171.12
2019-02-06T13:47:05.692Z,101165.31
2019-02-06T13:49:35.557Z,101163.80
2019-02-06T13:52:05.707Z,101165.28
2019-02-06T13:54:35.254Z,101172.59
2019-02-06T13:57:05.075Z,101168.68
2019-02-06T13:59:34.651Z,101163.58
2019-02-06T14:02:04.808Z,101159.97
2019-02-06T14:04:34.619Z,101143.38
2019-02-06T14:07:04.202Z,101143.38
2019-02-06T14:09:34.548Z,101146.08
2019-02-06T14:12:04.552Z,101151.95
2019-02-06T14:14:34.358Z,101153.72
2019-02-06T14:17:04.766Z,101159.98
2019-02-06T14:19:34.392Z,101151.72
2019-02-06T14:22:05.063Z,101148.37
2019-02-06T14:24:48.475Z,101145.87
2019-02-06T14:27:56.191Z,101144.80
2019-02-06T14:31:07.784Z,101130.98
2019-02-06T14:34:10.714Z,101126.95
2019-02-06T14:37:27.840Z,101131.41
2019-02-06T14:40:25.608Z,101125.45
2019-02-06T14:43:15.220Z,101122.59
2019-02-06T14:46:26.263Z,101118.48
2019-02-06T14:49:30.743Z,101111.40
2019-02-06T14:52:24.949Z,101112.41
2019-02-06T14:55:13.551Z,101109.27
2019-02-06T14:58:04.756Z,101107.61
2019-02-06T15:01:22.515Z,101105.09
2019-02-06T15:04:45.051Z,101109.35
2019-02-06T15:07:27.680Z,101109.05
2019-02-06T15:10:37.363Z,101101.47
2019-02-06T15:13:42.480Z,101107.07
2019-02-06T15:16:49.423Z,101094.65
2019-02-06T15:20:06.733Z,101093.48
2019-02-06T15:23:16.473Z,101092.88
2019-02-06T15:26:21.194Z,101088.07
2019-02-06T15:29:27.105Z,101087.15
2019-02-06T15:32:33.517Z,101080.05
2019-02-06T15:35:27.331Z,101082.57
2019-02-06T15:38:37.416Z,101082.66
2019-02-06T15:41:35.326Z,101075.27
2019-02-06T15:44:24.316Z,101079.52
2019-02-06T15:47:29.911Z,101073.34
2019-02-06T15:50:56.925Z,101072.83
2019-02-06T15:53:52.751Z,101076.78
2019-02-06T15:56:50.700Z,101065.02
2019-02-06T16:00:03.640Z,101065.36
2019-02-06T16:03:12.768Z,101060.41
2019-02-06T16:06:05.772Z,101061.42
2019-02-06T16:08:52.745Z,101048.08
2019-02-06T16:12:04.969Z,101049.97
2019-02-06T16:15:21.948Z,101051.04
2019-02-06T16:18:08.685Z,101054.21
2019-02-06T16:21:06.185Z,101044.88
2019-02-06T16:23:55.573Z,101051.69
2019-02-06T16:27:16.861Z,101047.79
2019-02-06T16:30:15.949Z,101054.01
2019-02-06T16:33:10.417Z,101044.45
2019-02-06T16:36:02.403Z,101035.87
2019-02-06T16:39:04.712Z,101035.72
2019-02-06T16:41:59.369Z,101036.29
2019-02-06T16:45:07.279Z,101030.50
2019-02-06T16:48:14.717Z,101029.65
2019-02-06T16:51:10.013Z,101037.00
2019-02-06T16:54:14.230Z,101037.53
2019-02-06T16:57:50.194Z,101041.02
2019-02-06T17:00:36.971Z,101047.23
2019-02-06T17:03:39.110Z,101039.92
2019-02-06T17:06:21.583Z,101037.64
2019-02-06T17:09:50.881Z,101037.58
2019-02-06T17:12:38.846Z,101035.88
2019-02-06T17:15:48.053Z,101034.31
2019-02-06T17:18:44.405Z,101030.72
2019-02-06T17:21:21.605Z,101028.20
2019-02-06T17:24:17.411Z,101028.78
2019-02-06T17:27:20.389Z,101023.69
2019-02-06T17:30:01.168Z,101012.83
2019-02-06T17:33:12.645Z,101012.83
2019-02-06T17:36:05.968Z,101010.90
2019-02-06T17:39:12.030Z,101007.05
2019-02-06T17:42:15.388Z,101003.77
2019-02-06T17:45:26.120Z,101004.55
2019-02-06T17:48:08.268Z,101006.75
2019-02-06T17:51:09.783Z,101011.70
2019-02-06T17:53:47.598Z,101010.14
2019-02-06T17:56:18.032Z,101007.16
2019-02-06T17:58:47.589Z,101014.44
2019-02-06T18:01:30.801Z,101008.38
2019-02-06T18:04:07.640Z,101001.59
2019-02-06T18:06:38.668Z,101004.94
2019-02-06T18:09:13.539Z,101007.91
2019-02-06T18:11:43.556Z,101010.79
2019-02-06T18:14:13.518Z,101011.11
2019-02-06T18:16:43.278Z,101015.33
2019-02-06T18:19:12.808Z,101006.84
2019-02-06T18:21:42.503Z,100998.47
2019-02-06T18:24:12.302Z,100999.64
2019-02-06T18:26:44.808Z,100993.72
2019-02-06T18:29:14.355Z,100999.99
2019-02-06T18:31:44.193Z,100996.45
2019-02-06T18:34:13.990Z,101004.83
2019-02-06T18:36:44.735Z,101003.47
2019-02-06T18:39:15.369Z,101007.52
2019-02-06T18:41:45.130Z,101003.44
2019-02-06T18:44:15.212Z,100999.48
2019-02-06T18:46:47.598Z,101000.34
2019-02-06T18:49:17.168Z,100999.39
2019-02-06T18:51:46.812Z,100994.24
2019-02-06T18:54:16.660Z,100998.38
2019-02-06T18:56:47.277Z,100995.09
2019-02-06T18:59:16.990Z,100984.16
2019-02-06T19:01:46.922Z,100979.67
2019-02-06T19:04:18.915Z,100988.88
2019-02-06T19:06:49.561Z,100999.99
2019-02-06T19:09:19.328Z,100989.13
2019-02-06T19:11:48.996Z,101001.19
2019-02-06T19:14:19.044Z,100984.02
2019-02-06T19:16:48.698Z,100981.48
2019-02-06T19:19:25.048Z,100980.13
2019-02-06T19:21:50.081Z,100977.50
2019-02-06T19:24:19.576Z,100982.56
2019-02-06T19:26:50.916Z,100980.34
2019-02-06T19:29:21.408Z,100978.58
2019-02-06T19:31:54.221Z,100978.33
2019-02-06T19:34:24.464Z,100972.89
2019-02-06T19:36:54.260Z,100963.57
2019-02-06T19:39:25.347Z,100951.84
2019-02-06T19:41:55.462Z,100947.81
2019-02-06T19:44:25.360Z,100938.73
2019-02-06T19:46:57.538Z,100938.73
2019-02-06T19:49:27.393Z,100934.80
2019-02-06T19:51:57.746Z,100939.08
2019-02-06T19:54:27.296Z,100938.77
2019-02-06T19:56:57.161Z,100938.95
2019-02-06T19:59:26.928Z,100938.27
2019-02-06T20:01:57.019Z,100933.05
2019-02-06T20:04:26.897Z,100926.33
2019-02-06T20:06:56.425Z,100928.45
2019-02-06T20:09:27.067Z,100925.22
2019-02-06T20:11:56.587Z,100924.47
2019-02-06T20:14:26.842Z,100929.72
2019-02-06T20:16:56.368Z,100926.24
2019-02-06T20:19:26.729Z,100922.20
2019-02-06T20:21:56.412Z,100923.00
2019-02-06T20:24:26.236Z,100907.75
2019-02-06T20:26:56.070Z,100900.64
2019-02-06T20:29:25.630Z,100903.89
2019-02-06T20:31:55.218Z,100914.92
2019-02-06T20:34:25.408Z,100920.77
2019-02-06T20:36:55.133Z,100917.09
2019-02-06T20:39:25.924Z,100915.52
2019-02-06T20:41:55.821Z,100916.44
2019-02-06T20:44:25.454Z,100912.80
2019-02-06T20:46:55.942Z,100902.30
2019-02-06T20:49:25.552Z,100900.37
2019-02-06T20:51:55.285Z,100897.23
2019-02-06T20:54:25.499Z,100893.25
2019-02-06T20:56:55.029Z,100893.41
2019-02-06T20:59:24.834Z,100882.55
2019-02-06T21:01:55.182Z,100887.02
2019-02-06T21:04:26.226Z,100890.77
2019-02-06T21:06:55.966Z,100884.87
2019-02-06T21:09:25.602Z,100887.16
2019-02-06T21:11:55.455Z,100887.14
2019-02-06T21:14:24.956Z,100887.70
2019-02-06T21:16:54.569Z,100879.44
2019-02-06T21:19:24.131Z,100882.06
2019-02-06T21:21:54.207Z,100870.58
2019-02-06T21:24:23.895Z,100860.01
2019-02-06T21:26:53.800Z,100858.56
2019-02-06T21:29:23.353Z,100856.96
2019-02-06T21:31:53.238Z,100855.80
2019-02-06T21:34:22.901Z,100855.94
2019-02-06T21:36:52.668Z,100857.82
2019-02-06T21:39:22.736Z,100866.86
2019-02-06T21:41:52.598Z,100855.41
2019-02-06T21:44:22.272Z,100856.72
2019-02-06T21:46:52.084Z,100845.05
2019-02-06T21:49:21.900Z,100849.84
2019-02-06T21:51:51.560Z,100845.70
2019-02-06T21:54:21.920Z,100849.20
2019-02-06T21:56:52.880Z,100844.34
2019-02-06T21:59:22.879Z,100835.34
2019-02-06T22:01:52.408Z,100834.91
2019-02-06T22:04:22.587Z,100837.08
2019-02-06T22:06:52.319Z,100831.80
2019-02-06T22:09:21.971Z,100837.75
2019-02-06T22:11:51.840Z,100835.48
2019-02-06T22:14:21.756Z,100823.85
2019-02-06T22:16:51.572Z,100823.85
2019-02-06T22:19:21.604Z,100826.58
2019-02-06T22:21:51.601Z,100833.35
2019-02-06T22:24:21.585Z,100839.84
2019-02-06T22:26:51.943Z,100842.53
2019-02-06T22:29:21.625Z,100834.31
2019-02-06T22:31:51.588Z,100831.45
2019-02-06T22:34:21.598Z,100807.48
2019-02-06T22:36:51.643Z,100822.33
2019-02-06T22:39:21.626Z,100817.84
2019-02-06T22:41:51.722Z,100811.53
2019-02-06T22:44:21.744Z,100808.77
2019-02-06T22:46:51.986Z,100806.50
2019-02-06T22:49:21.932Z,100805.68
2019-02-06T22:51:52.048Z,100803.34
2019-02-06T22:54:22.271Z,100801.70
2019-02-06T22:56:53.090Z,100800.65
2019-02-06T23:01:56.321Z,100811.42
2019-02-06T23:04:26.676Z,100803.80
2019-02-06T23:06:56.307Z,100793.41
2019-02-06T23:09:26.158Z,100791.11
2019-02-06T23:11:55.734Z,100795.61
2019-02-06T23:14:25.892Z,100788.23
2019-02-06T23:16:56.017Z,100782.71
2019-02-06T23:19:25.562Z,100778.55
2019-02-06T23:21:55.998Z,100773.64
2019-02-06T23:24:25.839Z,100775.36
2019-02-06T23:26:56.383Z,100773.20
2019-02-06T23:29:25.881Z,100768.45
2019-02-06T23:31:56.681Z,100769.73
2019-02-06T23:34:26.185Z,100769.45
2019-02-06T23:36:56.730Z,100759.84
2019-02-06T23:39:26.310Z,100753.72
2019-02-06T23:41:56.162Z,100746.97
2019-02-06T23:44:29.040Z,100747.69
2019-02-06T23:46:56.920Z,100732.80
2019-02-06T23:49:26.450Z,100732.33
2019-02-06T23:51:56.436Z,100724.98
2019-02-06T23:54:25.938Z,100734.03
2019-02-06T23:56:56.114Z,100725.20
2019-02-06T23:59:25.853Z,100721.42
